Time;durP1;ratioP1;P1;durP2;ratioP2;P2;SDS_P1;SDS_P2;PMS_P1;PMS_P2;Temp;Humidity;BMP_temperature;BMP_pressure;BME280_temperature;BME280_humidity;BME280_pressure;Samples;Min_cycle;Max_cycle;Signal;HPM_P1;HPM_P2
2023/01/18 00:00:41;;;;;;;4.05;3.65;;;3.70;1.00;;;;;;5075815;28;20300;-78
2023/01/18 00:03:11;;;;;;;4.30;4.00;;;3.70;1.00;;;;;;5072756;28;20208;-78
2023/01/18 00:05:42;;;;;;;4.38;3.90;;;3.60;1.00;;;;;;5064923;28;20972;-79
2023/01/18 00:08:12;;;;;;;4.25;3.95;;;3.60;24.90;;;;;;5077551;28;20214;-79
2023/01/18 00:10:40;;;;;;;6.55;4.40;;;3.50;99.90;;;;;;5074290;28;20211;-79
2023/01/18 00:13:09;;;;;;;4.40;4.00;;;3.70;1.00;;;;;;5075757;28;20797;-79
2023/01/18 00:15:38;;;;;;;4.00;3.70;;;3.70;1.00;;;;;;5075502;28;20778;-79
2023/01/18 00:18:06;;;;;;;3.72;3.53;;;3.60;1.00;;;;;;5074349;28;20206;-80
2023/01/18 00:20:34;;;;;;;4.18;3.97;;;3.50;99.90;;;;;;5072585;28;20595;-79
2023/01/18 00:23:04;;;;;;;4.13;3.83;;;3.50;99.90;;;;;;5070367;28;20658;-79
2023/01/18 00:25:32;;;;;;;4.40;4.00;;;3.70;1.00;;;;;;5073485;28;20609;-79
2023/01/18 00:28:01;;;;;;;3.80;3.50;;;3.60;1.00;;;;;;5075626;28;20203;-78
2023/01/18 00:30:29;;;;;;;4.65;4.30;;;3.60;1.00;;;;;;5071736;28;20235;-79
2023/01/18 00:32:58;;;;;;;4.00;3.70;;;3.60;1.00;;;;;;5071453;28;20226;-80
2023/01/18 00:35:27;;;;;;;3.85;3.58;;;3.50;1.00;;;;;;5069602;28;20214;-79
2023/01/18 00:37:55;;;;;;;3.85;3.60;;;3.40;57.90;;;;;;5070474;28;20203;-80
2023/01/18 00:40:27;;;;;;;3.00;2.80;;;3.50;1.00;;;;;;5067308;28;20271;-80
2023/01/18 00:45:42;;;;;;;4.40;4.00;;;3.40;99.90;;;;;;5080021;28;20203;-80
2023/01/18 00:48:10;;;;;;;3.65;3.35;;;3.40;99.90;;;;;;5080419;28;20620;-79
2023/01/18 00:50:39;;;;;;;3.08;2.88;;;3.40;99.90;;;;;;5078020;28;20224;-79
2023/01/18 00:53:07;;;;;;;3.67;3.40;;;3.50;1.00;;;;;;5074273;28;20226;-80
2023/01/18 00:55:36;;;;;;;3.33;3.10;;;3.50;99.90;;;;;;5075740;28;20200;-77
2023/01/18 00:58:05;;;;;;;3.83;3.63;;;3.40;1.00;;;;;;5076633;28;20203;-80
2023/01/18 01:00:33;;;;;;;5.50;4.50;;;3.40;99.90;;;;;;5078751;28;20227;-79
2023/01/18 01:03:01;;;;;;;3.72;3.42;;;3.40;1.00;;;;;;5077079;28;20192;-79
2023/01/18 01:08:16;;;;;;;3.80;3.50;;;3.40;1.00;;;;;;5075930;28;20200;-78
2023/01/18 01:10:47;;;;;;;3.90;3.60;;;3.30;1.00;;;;;;5078692;28;20224;-80
2023/01/18 01:27:11;;;;;;;4.03;3.72;;;3.40;1.00;;;;;;5078653;28;20273;-80
2023/01/18 01:29:39;;;;;;;4.18;3.88;;;3.40;96.90;;;;;;5076523;28;20196;-80
2023/01/18 01:32:07;;;;;;;4.85;4.45;;;3.40;1.00;;;;;;5080052;28;20208;-79
2023/01/18 01:34:36;;;;;;;4.38;4.07;;;3.40;90.10;;;;;;5078141;28;20277;-81
2023/01/18 01:37:04;;;;;;;5.30;4.47;;;3.50;1.00;;;;;;5077942;28;20269;-81
2023/01/18 01:39:32;;;;;;;5.22;4.63;;;3.50;99.90;;;;;;5079058;28;20610;-78
2023/01/18 01:42:01;;;;;;;4.72;4.38;;;3.50;1.00;;;;;;5078798;28;20620;-79
2023/01/18 01:44:48;;;;;;;5.00;4.60;;;3.50;1.00;;;;;;5077471;28;20207;-79
2023/01/18 01:47:28;;;;;;;4.20;3.80;;;3.50;1.00;;;;;;5072874;28;20215;-79
2023/01/18 01:50:00;;;;;;;4.70;4.22;;;3.50;99.90;;;;;;5075756;28;20216;-80
2023/01/18 01:52:34;;;;;;;4.20;3.90;;;3.50;99.90;;;;;;5078981;28;20209;-79
2023/01/18 01:55:07;;;;;;;5.25;4.85;;;3.50;99.90;;;;;;5069760;28;20207;-79
2023/01/18 01:57:39;;;;;;;5.10;4.72;;;3.60;99.90;;;;;;5077696;28;20206;-78
2023/01/18 02:00:13;;;;;;;5.75;5.25;;;3.40;99.90;;;;;;5076400;28;20224;-78
2023/01/18 02:02:44;;;;;;;4.60;4.20;;;3.60;1.00;;;;;;5071769;28;20297;-78
2023/01/18 02:05:15;;;;;;;5.25;4.75;;;3.50;99.90;;;;;;5072780;28;20734;-79
2023/01/18 02:07:43;;;;;;;5.60;5.13;;;3.60;99.90;;;;;;5076830;28;20196;-78
2023/01/18 02:10:12;;;;;;;5.55;5.05;;;3.60;99.90;;;;;;5073910;28;20283;-78
2023/01/18 02:12:42;;;;;;;5.80;5.30;;;3.60;99.90;;;;;;5076453;28;20214;-79
2023/01/18 02:15:12;;;;;;;6.50;5.90;;;3.60;47.50;;;;;;5068535;28;20303;-78
2023/01/18 02:18:04;;;;;;;7.10;6.40;;;3.60;99.90;;;;;;5076767;28;20203;-77
2023/01/18 02:21:03;;;;;;;6.47;5.88;;;3.50;99.90;;;;;;5066955;28;20329;-78
2023/01/18 02:23:34;;;;;;;5.72;5.20;;;3.60;99.90;;;;;;5068707;28;20203;-78
2023/01/18 02:26:25;;;;;;;8.30;6.75;;;3.60;99.90;;;;;;5071826;28;20199;-78
2023/01/18 02:29:00;;;;;;;7.03;6.43;;;3.70;99.90;;;;;;5071684;28;20219;-79
2023/01/18 02:31:34;;;;;;;6.90;6.07;;;3.70;26.00;;;;;;5074322;28;20211;-79
2023/01/18 02:34:07;;;;;;;7.28;6.32;;;3.60;1.00;;;;;;5075448;28;20231;-79
2023/01/18 02:36:44;;;;;;;6.72;6.10;;;3.50;99.90;;;;;;5087024;28;20201;-78
2023/01/18 02:39:22;;;;;;;6.78;6.07;;;3.60;99.90;;;;;;5074711;28;20267;-79
2023/01/18 02:47:33;;;;;;;6.68;5.90;;;3.40;15.10;;;;;;5078907;28;20218;-79
2023/01/18 02:50:03;;;;;;;7.03;6.40;;;3.40;99.90;;;;;;5076032;28;20221;-78
2023/01/18 02:52:40;;;;;;;7.85;6.90;;;3.50;54.20;;;;;;5072948;28;20204;-80
2023/01/18 02:55:22;;;;;;;9.07;8.18;;;3.50;95.00;;;;;;5075473;28;20352;-79
2023/01/18 02:57:51;;;;;;;6.78;6.13;;;3.50;1.00;;;;;;5078056;28;20262;-79
2023/01/18 03:00:22;;;;;;;8.63;7.15;;;3.60;1.00;;;;;;5077526;28;20235;-79
2023/01/18 03:02:53;;;;;;;7.45;6.22;;;3.50;99.90;;;;;;5073460;28;20196;-79
2023/01/18 03:05:24;;;;;;;9.13;6.20;;;3.50;1.00;;;;;;5077792;28;20204;-79
2023/01/18 03:07:54;;;;;;;7.10;6.40;;;3.50;1.00;;;;;;5076420;28;20222;-78
2023/01/18 03:10:28;;;;;;;6.43;5.82;;;3.50;1.00;;;;;;5083858;28;20227;-80
2023/01/18 03:13:00;;;;;;;5.70;5.20;;;3.50;1.00;;;;;;5081910;28;20195;-79
2023/01/18 03:15:41;;;;;;;6.20;5.20;;;3.50;1.00;;;;;;5080818;28;20927;-79
2023/01/18 03:18:17;;;;;;;6.22;5.60;;;3.40;91.50;;;;;;5076719;28;20206;-77
2023/01/18 03:20:51;;;;;;;5.78;5.28;;;3.40;99.90;;;;;;5082371;28;20466;-79
2023/01/18 03:23:41;;;;;;;5.60;5.10;;;3.40;99.90;;;;;;5085849;28;20198;-79
2023/01/18 03:26:10;;;;;;;4.22;3.92;;;3.40;99.90;;;;;;5081612;28;20264;-79
2023/01/18 03:34:24;;;;;;;5.00;4.40;;;3.50;1.00;;;;;;5074281;28;20593;-79
2023/01/18 03:36:55;;;;;;;5.18;4.68;;;3.50;1.00;;;;;;5068736;28;20196;-79
2023/01/18 03:39:29;;;;;;;6.05;5.45;;;3.50;1.00;;;;;;5072909;28;20224;-79
2023/01/18 03:42:02;;;;;;;5.30;4.80;;;3.50;1.00;;;;;;5070029;28;20193;-80
2023/01/18 03:44:35;;;;;;;5.47;4.97;;;3.50;1.00;;;;;;5071348;28;20225;-81
2023/01/18 03:47:06;;;;;;;5.38;4.88;;;3.50;1.00;;;;;;5068971;28;20646;-81
2023/01/18 03:49:35;;;;;;;5.13;4.70;;;3.40;99.90;;;;;;5068803;28;20221;-80
2023/01/18 03:52:16;;;;;;;4.70;4.40;;;3.30;1.00;;;;;;5076794;28;20194;-81
2023/01/18 03:54:57;;;;;;;5.85;5.30;;;3.40;99.90;;;;;;5074084;28;20221;-80
2023/01/18 03:57:32;;;;;;;5.10;4.60;;;3.60;99.90;;;;;;5067105;28;20794;-81
2023/01/18 04:00:01;;;;;;;6.10;5.53;;;3.50;99.90;;;;;;5068950;28;20304;-79
2023/01/18 04:02:32;;;;;;;6.03;5.40;;;3.40;99.90;;;;;;5068778;28;20199;-79
2023/01/18 04:05:02;;;;;;;6.15;5.55;;;3.40;99.90;;;;;;5068793;28;20200;-79
2023/01/18 04:07:31;;;;;;;6.90;5.90;;;3.50;1.00;;;;;;5074305;28;20208;-79
2023/01/18 04:09:59;;;;;;;5.47;4.78;;;3.40;1.00;;;;;;5072028;28;20220;-80
2023/01/18 04:12:29;;;;;;;6.63;5.50;;;3.50;99.90;;;;;;5069655;28;20550;-80
2023/01/18 04:14:58;;;;;;;5.15;4.70;;;3.50;99.90;;;;;;5071741;28;20223;-80
2023/01/18 04:17:26;;;;;;;5.38;4.97;;;3.50;99.90;;;;;;5069760;28;20696;-78
2023/01/18 04:19:56;;;;;;;7.13;5.85;;;3.30;1.00;;;;;;5077848;28;20211;-79
2023/01/18 04:22:24;;;;;;;6.07;5.00;;;3.40;1.00;;;;;;5078536;28;20222;-78
2023/01/18 04:24:52;;;;;;;5.72;4.40;;;3.40;1.00;;;;;;5076215;28;20228;-78
2023/01/18 04:27:21;;;;;;;5.75;5.15;;;3.50;1.00;;;;;;5085258;28;20202;-78
2023/01/18 04:29:51;;;;;;;4.88;4.20;;;3.50;1.00;;;;;;5075954;28;20220;-79
2023/01/18 04:32:19;;;;;;;4.60;4.20;;;3.50;99.90;;;;;;5075777;28;20575;-79
2023/01/18 04:34:48;;;;;;;5.00;4.60;;;3.50;99.90;;;;;;5075437;28;20216;-79
2023/01/18 04:37:17;;;;;;;4.93;4.53;;;3.30;1.00;;;;;;5071997;28;20196;-77
2023/01/18 04:39:46;;;;;;;5.10;4.47;;;3.30;68.70;;;;;;5077736;28;20230;-78
2023/01/18 04:42:14;;;;;;;3.83;3.53;;;3.30;1.00;;;;;;5075711;28;20617;-78
2023/01/18 04:44:42;;;;;;;5.20;4.75;;;3.50;1.00;;;;;;5075845;28;20194;-77
2023/01/18 04:47:11;;;;;;;4.82;4.45;;;3.40;99.90;;;;;;5072746;28;20226;-78
2023/01/18 04:49:39;;;;;;;4.85;4.45;;;3.40;1.00;;;;;;5075630;28;20203;-77
2023/01/18 04:52:08;;;;;;;4.25;3.95;;;3.40;1.00;;;;;;5073966;28;20214;-78
2023/01/18 04:54:37;;;;;;;5.65;4.15;;;3.40;1.00;;;;;;5075051;28;20219;-79
2023/01/18 04:57:06;;;;;;;5.43;4.93;;;3.40;1.00;;;;;;5075389;28;20211;-79
2023/01/18 04:59:38;;;;;;;4.38;3.97;;;3.30;1.00;;;;;;5081382;28;20204;-78
2023/01/18 05:02:06;;;;;;;4.68;4.30;;;3.30;1.00;;;;;;5078191;28;20203;-79
2023/01/18 05:04:35;;;;;;;4.90;4.50;;;3.40;1.00;;;;;;5079723;28;20317;-77
2023/01/18 05:07:03;;;;;;;3.58;3.30;;;3.30;1.00;;;;;;5077004;28;20294;-77
2023/01/18 05:09:32;;;;;;;4.10;3.25;;;3.40;1.00;;;;;;5076742;28;20848;-78
2023/01/18 05:12:02;;;;;;;4.22;3.58;;;3.30;99.90;;;;;;5076028;28;20282;-77
2023/01/18 05:14:30;;;;;;;3.83;3.53;;;3.30;1.00;;;;;;5076427;28;20208;-78
2023/01/18 05:16:58;;;;;;;3.78;3.47;;;3.30;1.00;;;;;;5078712;28;20248;-78
2023/01/18 05:19:30;;;;;;;4.95;4.55;;;3.30;1.00;;;;;;5079222;28;20680;-78
2023/01/18 05:21:58;;;;;;;4.45;4.10;;;3.40;1.00;;;;;;5076155;28;20198;-77
2023/01/18 05:24:26;;;;;;;4.43;4.05;;;3.40;1.00;;;;;;5074767;28;20292;-76
2023/01/18 05:26:56;;;;;;;3.83;3.55;;;3.30;1.00;;;;;;5075866;28;20586;-77
2023/01/18 05:29:26;;;;;;;3.78;3.53;;;3.30;9.60;;;;;;5073821;28;20198;-78
2023/01/18 05:31:54;;;;;;;7.57;3.30;;;3.30;44.80;;;;;;5076413;28;20213;-78
2023/01/18 05:34:23;;;;;;;3.17;2.88;;;3.30;1.00;;;;;;5073414;28;20710;-78
2023/01/18 05:36:51;;;;;;;4.05;3.75;;;3.40;1.00;;;;;;5075589;28;20553;-79
2023/01/18 05:39:19;;;;;;;3.70;3.40;;;3.40;1.00;;;;;;5080614;28;20199;-79
2023/01/18 05:41:47;;;;;;;3.80;3.40;;;3.50;1.00;;;;;;5080448;28;20218;-81
2023/01/18 05:44:16;;;;;;;3.53;3.22;;;3.50;1.00;;;;;;5076011;28;20287;-79
2023/01/18 05:46:45;;;;;;;3.17;2.97;;;3.40;99.90;;;;;;5076333;28;20198;-79
2023/01/18 05:49:13;;;;;;;3.38;3.17;;;3.40;1.00;;;;;;5076881;28;20642;-79
2023/01/18 05:51:42;;;;;;;3.05;2.75;;;3.40;1.00;;;;;;5075994;28;20225;-79
2023/01/18 05:54:10;;;;;;;2.65;2.55;;;3.40;99.90;;;;;;5074873;28;20511;-79
2023/01/18 05:56:39;;;;;;;3.05;2.80;;;3.40;99.90;;;;;;5075480;28;20756;-79
2023/01/18 05:59:07;;;;;;;2.20;2.10;;;3.30;62.70;;;;;;5080330;28;20205;-80
2023/01/18 06:01:35;;;;;;;2.58;2.47;;;3.30;99.90;;;;;;5076555;28;20244;-79
2023/01/18 06:04:05;;;;;;;4.80;3.45;;;3.40;89.10;;;;;;5075941;28;20839;-79
2023/01/18 06:06:33;;;;;;;4.05;3.40;;;3.30;89.60;;;;;;5073144;28;20188;-79
2023/01/18 06:09:02;;;;;;;3.22;2.90;;;3.30;99.90;;;;;;5068702;28;20289;-79
2023/01/18 06:11:30;;;;;;;2.67;2.58;;;3.40;99.90;;;;;;5074696;28;20329;-79
2023/01/18 06:13:58;;;;;;;2.97;2.78;;;3.40;99.90;;;;;;5073994;28;20207;-79
2023/01/18 06:16:26;;;;;;;2.80;2.63;;;3.40;99.90;;;;;;5081422;28;20728;-79
2023/01/18 06:18:54;;;;;;;2.70;2.47;;;3.50;99.90;;;;;;5075385;28;20214;-79
2023/01/18 06:21:25;;;;;;;2.80;2.60;;;3.50;99.90;;;;;;5076361;28;21104;-79
2023/01/18 06:23:53;;;;;;;2.22;2.13;;;3.50;99.90;;;;;;5073969;28;20193;-79
2023/01/18 06:26:22;;;;;;;3.03;2.83;;;3.40;99.90;;;;;;5080268;28;20267;-79
2023/01/18 06:28:50;;;;;;;2.38;2.20;;;3.40;99.90;;;;;;5079955;28;20395;-79
2023/01/18 06:31:19;;;;;;;2.58;2.38;;;3.50;99.90;;;;;;5079252;28;20313;-79
2023/01/18 06:33:47;;;;;;;2.30;2.20;;;3.30;99.90;;;;;;5081106;28;20252;-79
2023/01/18 06:36:15;;;;;;;2.95;2.75;;;3.40;99.90;;;;;;5080458;28;20221;-79
2023/01/18 06:38:44;;;;;;;3.33;3.03;;;3.40;99.90;;;;;;5068358;28;20232;-79
2023/01/18 06:41:14;;;;;;;3.42;3.13;;;3.40;99.90;;;;;;5075482;28;20232;-80
2023/01/18 06:43:42;;;;;;;3.83;3.53;;;3.40;99.90;;;;;;5077042;28;20214;-79
2023/01/18 06:46:10;;;;;;;3.97;3.47;;;3.50;99.90;;;;;;5078713;28;20195;-79
2023/01/18 06:48:38;;;;;;;3.60;3.30;;;3.40;99.90;;;;;;5076117;28;20210;-79
2023/01/18 06:51:07;;;;;;;4.32;4.03;;;3.40;99.90;;;;;;5075152;28;20217;-79
2023/01/18 06:53:35;;;;;;;4.40;4.00;;;3.40;99.90;;;;;;5076715;28;20207;-79
2023/01/18 06:56:09;;;;;;;5.35;4.70;;;3.40;99.90;;;;;;5077159;28;20219;-79
2023/01/18 06:58:37;;;;;;;5.00;4.50;;;3.30;99.90;;;;;;5077788;28;20209;-79
2023/01/18 07:01:06;;;;;;;5.40;4.90;;;3.30;99.90;;;;;;5077708;28;20224;-79
2023/01/18 07:03:34;;;;;;;4.70;4.30;;;3.40;99.90;;;;;;5079038;28;20535;-79
2023/01/18 07:06:05;;;;;;;5.25;4.75;;;3.40;1.00;;;;;;5077334;28;20236;-80
2023/01/18 07:08:34;;;;;;;6.05;5.55;;;3.30;1.00;;;;;;5078248;28;20437;-80
2023/01/18 07:11:09;;;;;;;5.60;5.00;;;3.20;97.80;;;;;;5077864;28;20403;-80
2023/01/18 07:13:39;;;;;;;5.28;4.85;;;3.30;1.00;;;;;;5082232;28;20200;-80
2023/01/18 07:16:12;;;;;;;5.05;4.65;;;3.40;1.00;;;;;;5076986;28;20222;-80
2023/01/18 07:18:42;;;;;;;4.35;3.95;;;3.40;1.00;;;;;;5083405;28;20749;-80
2023/01/18 07:21:11;;;;;;;5.88;4.80;;;3.40;1.00;;;;;;5078915;28;20242;-80
2023/01/18 07:23:42;;;;;;;5.88;4.80;;;3.30;99.90;;;;;;5082500;28;20234;-79
2023/01/18 07:26:15;;;;;;;6.07;4.57;;;3.20;1.00;;;;;;5082545;28;20207;-80
2023/01/18 07:28:43;;;;;;;6.70;5.68;;;3.30;1.00;;;;;;5073936;28;20730;-80
2023/01/18 07:31:12;;;;;;;4.60;4.25;;;3.20;1.00;;;;;;5074813;28;20228;-81
2023/01/18 07:33:40;;;;;;;4.30;3.88;;;3.20;1.00;;;;;;5076950;28;20223;-79
2023/01/18 07:36:09;;;;;;;3.97;3.67;;;3.20;1.00;;;;;;5078197;28;20215;-80
2023/01/18 07:38:38;;;;;;;4.15;3.75;;;3.20;1.00;;;;;;5078478;28;20479;-80
2023/01/18 07:41:08;;;;;;;4.78;3.75;;;3.20;1.00;;;;;;5082099;28;20234;-81
2023/01/18 07:43:38;;;;;;;5.43;4.60;;;3.20;99.90;;;;;;5080622;28;20818;-80
2023/01/18 07:46:08;;;;;;;4.50;4.10;;;3.30;1.00;;;;;;5082061;28;20203;-79
2023/01/18 07:48:36;;;;;;;4.53;4.13;;;3.30;1.00;;;;;;5075555;28;20293;-81
2023/01/18 07:51:08;;;;;;;4.45;4.05;;;3.30;99.90;;;;;;5081102;28;20218;-81
2023/01/18 07:53:37;;;;;;;4.78;4.47;;;3.20;99.90;;;;;;5080956;28;20232;-81
2023/01/18 07:56:08;;;;;;;4.45;4.05;;;3.30;99.90;;;;;;5078142;28;20349;-81
2023/01/18 07:58:38;;;;;;;5.32;4.57;;;3.20;99.90;;;;;;5073397;28;20314;-80
2023/01/18 08:01:08;;;;;;;4.22;3.83;;;3.20;99.90;;;;;;5067356;28;20226;-80
2023/01/18 08:03:37;;;;;;;4.13;3.72;;;3.20;99.90;;;;;;5076746;28;20214;-82
2023/01/18 08:06:07;;;;;;;4.90;4.50;;;3.20;99.90;;;;;;5075212;28;20194;-79
2023/01/18 08:08:36;;;;;;;5.35;4.95;;;3.20;99.90;;;;;;5077389;28;20286;-81
2023/01/18 08:11:06;;;;;;;6.53;4.80;;;3.30;99.90;;;;;;5075995;28;20226;-81
2023/01/18 08:13:35;;;;;;;6.10;5.50;;;3.20;99.90;;;;;;5076489;28;20261;-81
2023/01/18 08:16:07;;;;;;;5.22;4.90;;;3.20;99.90;;;;;;5078940;28;20200;-81
2023/01/18 08:18:35;;;;;;;6.15;5.55;;;3.30;99.90;;;;;;5081399;28;20206;-81
2023/01/18 08:21:03;;;;;;;5.18;4.70;;;3.20;99.90;;;;;;5081178;28;20274;-81
2023/01/18 08:23:31;;;;;;;5.22;4.85;;;3.20;99.90;;;;;;5081549;28;20219;-81
2023/01/18 08:26:03;;;;;;;6.07;4.53;;;3.20;99.90;;;;;;5082299;28;20238;-81
2023/01/18 08:28:31;;;;;;;3.80;3.50;;;3.20;99.90;;;;;;5078854;28;20210;-81
2023/01/18 08:31:10;;;;;;;5.15;4.75;;;3.30;99.90;;;;;;5078970;28;20640;-81
2023/01/18 08:33:44;;;;;;;5.75;5.20;;;3.20;99.90;;;;;;5077635;28;20236;-81
2023/01/18 08:36:15;;;;;;;5.18;4.40;;;3.20;99.90;;;;;;5079428;28;20205;-81
2023/01/18 08:38:46;;;;;;;6.18;4.78;;;3.20;99.90;;;;;;5076948;28;20279;-81
2023/01/18 08:41:15;;;;;;;4.63;4.05;;;3.20;99.90;;;;;;5072453;28;20693;-82
2023/01/18 08:43:44;;;;;;;4.75;4.03;;;3.10;99.90;;;;;;5073292;28;20794;-81
2023/01/18 08:46:14;;;;;;;5.20;4.75;;;3.10;99.90;;;;;;5074382;28;20206;-81
2023/01/18 08:48:43;;;;;;;5.05;4.55;;;3.10;99.90;;;;;;5077852;28;20215;-81
2023/01/18 08:51:11;;;;;;;5.80;4.70;;;3.20;99.90;;;;;;5077088;28;20562;-82
2023/01/18 08:53:40;;;;;;;5.60;5.10;;;3.20;99.90;;;;;;5077977;28;20988;-82
2023/01/18 08:56:09;;;;;;;6.18;5.45;;;3.30;99.90;;;;;;5084097;28;20231;-82
2023/01/18 08:58:37;;;;;;;4.82;4.43;;;3.20;99.90;;;;;;5082308;28;20267;-81
2023/01/18 09:01:06;;;;;;;4.70;4.30;;;3.10;99.90;;;;;;5094534;28;20602;-81
2023/01/18 09:03:36;;;;;;;4.03;3.72;;;3.20;99.90;;;;;;5082570;28;20242;-81
2023/01/18 09:06:08;;;;;;;3.42;3.22;;;3.20;99.90;;;;;;5083697;28;20242;-81
2023/01/18 09:08:40;;;;;;;4.20;3.55;;;3.20;99.90;;;;;;5083183;28;20247;-81
2023/01/18 09:11:10;;;;;;;4.97;4.03;;;3.20;99.90;;;;;;5082895;28;20225;-81
2023/01/18 09:13:40;;;;;;;4.25;3.63;;;3.20;99.90;;;;;;5082122;28;20226;-80
2023/01/18 09:16:26;;;;;;;6.35;5.55;;;3.20;99.90;;;;;;5083434;28;20292;-81
2023/01/18 09:18:57;;;;;;;3.85;3.10;;;3.30;99.90;;;;;;5079524;28;20661;-81
2023/01/18 09:21:27;;;;;;;3.50;3.20;;;3.30;99.90;;;;;;5084316;28;20305;-81
2023/01/18 09:23:55;;;;;;;2.78;2.58;;;3.30;99.90;;;;;;5081385;28;20208;-81
2023/01/18 09:26:23;;;;;;;3.05;2.85;;;3.30;77.80;;;;;;5084055;28;20215;-81
2023/01/18 09:28:53;;;;;;;4.50;4.18;;;3.50;12.80;;;;;;5080356;28;20206;-81
2023/01/18 09:31:24;;;;;;;3.58;3.38;;;3.30;99.90;;;;;;5083881;28;20705;-81
2023/01/18 09:33:52;;;;;;;4.22;3.72;;;3.30;98.40;;;;;;5080620;28;20262;-81
2023/01/18 09:36:25;;;;;;;4.00;3.70;;;3.40;92.70;;;;;;5077920;28;20268;-80
2023/01/18 09:38:54;;;;;;;4.60;4.22;;;3.30;84.20;;;;;;5080877;28;20341;-82
2023/01/18 09:41:30;;;;;;;4.85;3.85;;;3.40;99.90;;;;;;5081936;28;20561;-80
2023/01/18 09:44:02;;;;;;;5.25;4.18;;;3.40;99.90;;;;;;5080951;28;20217;-81
2023/01/18 09:46:35;;;;;;;4.78;4.38;;;3.50;99.90;;;;;;5081043;28;20311;-79
2023/01/18 09:49:12;;;;;;;3.83;3.47;;;3.50;99.90;;;;;;5081563;28;20219;-80
2023/01/18 09:51:53;;;;;;;5.60;5.18;;;3.50;99.90;;;;;;5083976;28;20221;-81
2023/01/18 09:54:35;;;;;;;5.60;5.10;;;3.50;33.40;;;;;;5084578;28;20206;-81
2023/01/18 09:57:12;;;;;;;6.35;5.15;;;3.50;38.90;;;;;;5081050;28;20205;-81
2023/01/18 09:59:46;;;;;;;4.63;4.22;;;3.50;68.60;;;;;;5082495;28;20193;-81
2023/01/18 10:02:22;;;;;;;5.43;4.82;;;3.50;99.90;;;;;;5082369;28;20204;-81
2023/01/18 10:04:54;;;;;;;5.00;4.50;;;3.50;99.90;;;;;;5083405;28;20212;-81
2023/01/18 10:07:30;;;;;;;5.63;3.97;;;3.60;99.90;;;;;;5088891;28;20694;-81
2023/01/18 10:10:01;;;;;;;4.80;4.40;;;3.60;99.90;;;;;;5082626;28;20303;-80
2023/01/18 10:12:33;;;;;;;4.28;3.88;;;3.70;1.00;;;;;;5079008;28;20573;-81
2023/01/18 10:15:09;;;;;;;4.30;3.90;;;3.70;99.90;;;;;;5080270;28;20206;-82
2023/01/18 10:17:40;;;;;;;3.85;3.53;;;3.70;1.00;;;;;;5080432;28;20205;-83
2023/01/18 10:20:16;;;;;;;4.82;3.92;;;3.60;14.20;;;;;;5080394;28;20219;-81
2023/01/18 10:22:50;;;;;;;5.50;3.42;;;3.60;52.60;;;;;;5081871;28;20202;-80
2023/01/18 10:25:30;;;;;;;7.95;3.72;;;3.50;91.20;;;;;;5084946;28;20247;-82
2023/01/18 10:28:25;;;;;;;3.40;3.20;;;3.50;99.90;;;;;;5085021;28;20199;-81
2023/01/18 10:31:02;;;;;;;4.13;3.83;;;3.50;99.90;;;;;;5073881;28;20221;-79
2023/01/18 10:33:35;;;;;;;4.40;4.00;;;3.50;99.90;;;;;;5078923;28;20196;-80
2023/01/18 10:36:09;;;;;;;4.63;4.25;;;3.50;99.90;;;;;;5081927;28;20213;-79
2023/01/18 10:38:41;;;;;;;4.30;3.95;;;3.60;99.90;;;;;;5075644;28;20271;-78
2023/01/18 10:41:19;;;;;;;5.55;4.55;;;3.60;99.90;;;;;;5077309;28;20301;-81
2023/01/18 10:43:47;;;;;;;4.20;3.90;;;3.60;99.90;;;;;;5081986;28;20200;-81
2023/01/18 10:46:18;;;;;;;5.05;4.63;;;3.70;99.90;;;;;;5083819;28;20578;-81
2023/01/18 10:48:48;;;;;;;4.85;4.47;;;3.70;49.70;;;;;;5079563;28;20226;-80
2023/01/18 10:51:30;;;;;;;5.28;3.72;;;3.70;49.80;;;;;;5080654;28;20231;-81
2023/01/18 10:53:59;;;;;;;4.78;4.25;;;3.60;74.80;;;;;;5083122;28;20199;-81
2023/01/18 10:56:28;;;;;;;5.75;4.90;;;3.60;89.10;;;;;;5071701;28;20203;-81
2023/01/18 10:58:58;;;;;;;4.07;3.75;;;3.60;99.90;;;;;;5077628;28;20231;-81
2023/01/18 11:01:28;;;;;;;11.52;4.18;;;3.60;99.90;;;;;;5077983;28;20286;-82
2023/01/18 11:04:04;;;;;;;4.55;4.15;;;3.70;99.90;;;;;;5082479;28;20214;-81
2023/01/18 11:06:45;;;;;;;4.40;3.97;;;3.50;92.20;;;;;;5079708;28;20282;-82
2023/01/18 11:09:39;;;;;;;5.47;3.90;;;3.50;17.30;;;;;;5079564;28;20198;-82
2023/01/18 11:12:36;;;;;;;6.72;3.92;;;3.40;49.70;;;;;;5077555;28;20218;-82
2023/01/18 11:15:26;;;;;;;3.90;3.47;;;3.50;49.30;;;;;;5077017;28;20206;-82
2023/01/18 11:18:02;;;;;;;3.30;3.00;;;3.50;8.00;;;;;;5077552;28;20210;-82
2023/01/18 11:20:34;;;;;;;3.38;3.08;;;3.50;1.00;;;;;;5077869;28;20222;-80
2023/01/18 11:23:05;;;;;;;4.00;3.20;;;3.40;1.00;;;;;;5082129;28;20201;-81
2023/01/18 11:25:40;;;;;;;4.32;3.90;;;3.50;24.80;;;;;;5078355;28;20206;-82
2023/01/18 11:28:16;;;;;;;3.60;3.30;;;3.40;2.60;;;;;;5078837;28;20206;-82
2023/01/18 11:30:52;;;;;;;3.40;3.10;;;3.50;26.00;;;;;;5078044;28;20212;-79
2023/01/18 11:33:22;;;;;;;3.20;3.00;;;3.40;99.90;;;;;;5081110;28;20204;-81
2023/01/18 11:35:56;;;;;;;4.50;3.45;;;3.50;37.50;;;;;;5078647;28;20203;-81
2023/01/18 11:38:29;;;;;;;3.05;2.75;;;3.50;46.90;;;;;;5078599;28;20217;-81
2023/01/18 11:41:14;;;;;;;2.88;2.40;;;3.50;1.00;;;;;;5076230;28;20255;-82
2023/01/18 11:43:53;;;;;;;2.75;2.38;;;3.60;1.00;;;;;;5095534;28;20202;-82
2023/01/18 11:46:30;;;;;;;3.60;2.15;;;3.60;1.00;;;;;;5079272;28;20310;-83
2023/01/18 11:49:07;;;;;;;3.20;2.55;;;3.60;1.00;;;;;;5075484;28;20200;-82
2023/01/18 11:51:42;;;;;;;3.25;2.15;;;3.60;1.00;;;;;;5076685;28;20225;-80
2023/01/18 11:54:21;;;;;;;2.80;2.60;;;3.60;1.00;;;;;;5079563;28;20233;-82
2023/01/18 11:56:54;;;;;;;3.08;2.88;;;3.50;1.00;;;;;;5071624;28;20205;-83
2023/01/18 11:59:28;;;;;;;3.20;2.90;;;3.50;1.00;;;;;;5081402;28;20226;-81
2023/01/18 12:02:44;;;;;;;3.10;2.72;;;3.50;1.00;;;;;;5074404;28;20249;-81
2023/01/18 12:05:36;;;;;;;4.78;3.25;;;3.50;1.00;;;;;;5014096;28;20206;-81
2023/01/18 12:08:30;;;;;;;5.63;3.40;;;3.60;1.00;;;;;;5081167;28;20249;-81
2023/01/18 12:11:19;;;;;;;8.63;3.00;;;3.50;1.00;;;;;;5076157;28;20243;-81
2023/01/18 12:13:58;;;;;;;3.35;3.13;;;3.60;1.00;;;;;;5071321;28;20197;-82
2023/01/18 12:16:42;;;;;;;3.17;2.88;;;3.60;1.00;;;;;;5075118;28;20213;-82
2023/01/18 12:19:34;;;;;;;3.40;3.17;;;3.60;1.00;;;;;;5077443;28;20212;-82
2023/01/18 12:22:28;;;;;;;3.72;3.00;;;3.60;1.00;;;;;;5083178;28;20218;-82
2023/01/18 12:25:10;;;;;;;3.80;3.40;;;3.70;1.00;;;;;;5055460;28;20515;-82
2023/01/18 12:27:48;;;;;;;3.70;3.40;;;3.70;1.00;;;;;;5080043;28;20203;-82
2023/01/18 12:30:27;;;;;;;5.65;3.70;;;3.70;1.00;;;;;;5080228;28;20242;-82
2023/01/18 12:33:08;;;;;;;4.28;3.55;;;3.70;1.00;;;;;;5076291;28;20216;-82
2023/01/18 12:36:17;;;;;;;6.70;2.72;;;3.70;1.00;;;;;;5074998;28;20217;-82
2023/01/18 12:38:51;;;;;;;8.30;3.35;;;3.70;1.00;;;;;;5077830;28;20209;-81
2023/01/18 12:41:43;;;;;;;3.58;2.95;;;3.60;1.00;;;;;;5080792;28;20224;-82
2023/01/18 12:44:40;;;;;;;3.70;3.35;;;3.70;1.00;;;;;;5080556;28;20199;-82
2023/01/18 12:47:35;;;;;;;3.13;2.83;;;3.70;1.00;;;;;;5084166;28;20305;-82
2023/01/18 12:50:14;;;;;;;4.05;3.75;;;3.70;1.00;;;;;;5070547;28;20448;-81
2023/01/18 12:52:49;;;;;;;2.77;2.57;;;3.70;1.00;;;;;;5073769;28;20587;-80
2023/01/18 12:55:21;;;;;;;3.22;2.85;;;3.90;1.00;;;;;;5073817;28;20468;-81
2023/01/18 12:57:52;;;;;;;5.22;3.00;;;3.80;1.00;;;;;;5079752;28;20200;-81
2023/01/18 13:00:26;;;;;;;6.35;3.55;;;3.80;1.00;;;;;;5081598;28;20696;-82
2023/01/18 13:02:57;;;;;;;3.22;3.03;;;3.90;1.00;;;;;;5073289;28;20552;-80
2023/01/18 13:05:35;;;;;;;3.40;3.10;;;3.90;1.00;;;;;;5074283;28;20203;-81
2023/01/18 13:08:10;;;;;;;9.15;3.38;;;3.90;1.00;;;;;;5079229;28;20206;-81
2023/01/18 13:10:39;;;;;;;2.65;2.45;;;3.80;1.00;;;;;;5082305;28;20308;-82
2023/01/18 13:13:12;;;;;;;3.33;3.03;;;3.80;1.00;;;;;;5077069;28;20207;-82
2023/01/18 13:15:44;;;;;;;3.85;3.13;;;3.80;1.00;;;;;;5077548;28;20452;-82
2023/01/18 13:18:21;;;;;;;2.25;2.05;;;3.80;1.00;;;;;;5076809;28;20208;-79
2023/01/18 13:20:58;;;;;;;5.53;2.50;;;3.80;1.00;;;;;;5081525;28;20286;-81
2023/01/18 13:23:35;;;;;;;3.75;2.85;;;3.80;1.00;;;;;;5072997;28;20205;-82
2023/01/18 13:26:20;;;;;;;3.00;2.78;;;3.80;1.00;;;;;;5077126;28;20200;-82
2023/01/18 13:29:04;;;;;;;4.38;3.00;;;3.80;99.90;;;;;;5075958;28;20202;-81
2023/01/18 13:31:33;;;;;;;3.78;2.67;;;3.80;1.00;;;;;;5078464;28;20251;-82
2023/01/18 13:34:03;;;;;;;2.67;2.45;;;3.80;99.90;;;;;;5067693;28;20318;-81
2023/01/18 13:36:46;;;;;;;4.38;3.30;;;3.80;99.90;;;;;;5070260;28;20200;-81
2023/01/18 13:39:16;;;;;;;5.03;3.13;;;3.80;99.90;;;;;;5068298;28;20202;-81
2023/01/18 13:42:07;;;;;;;3.30;3.05;;;3.80;99.90;;;;;;5072706;28;20219;-80
2023/01/18 13:44:39;;;;;;;3.33;3.03;;;3.70;99.90;;;;;;5069595;28;20200;-81
2023/01/18 13:47:42;;;;;;;8.75;3.65;;;3.60;99.90;;;;;;5070454;28;20767;-82
2023/01/18 13:50:46;;;;;;;4.05;3.33;;;3.60;99.90;;;;;;5064319;28;20745;-81
2023/01/18 13:53:30;;;;;;;3.47;3.03;;;3.60;99.90;;;;;;5070094;28;20197;-80
2023/01/18 13:56:23;;;;;;;2.90;2.53;;;3.60;1.00;;;;;;5070623;28;20540;-80
2023/01/18 13:58:54;;;;;;;4.68;2.70;;;3.60;1.00;;;;;;5070189;28;20193;-81
2023/01/18 14:01:25;;;;;;;3.20;2.88;;;3.70;99.90;;;;;;5073725;28;20888;-81
2023/01/18 14:03:55;;;;;;;4.72;3.10;;;3.70;99.90;;;;;;5070877;28;20223;-80